createdAt,value
2024-03-16T00:01:04.002Z,85.25
2024-03-16T00:03:30.749Z,86.08
2024-03-16T00:06:00.294Z,85.85
2024-03-16T00:08:28.885Z,85.93
2024-03-16T00:10:55.619Z,86.09
2024-03-16T00:13:22.120Z,86.62
2024-03-16T00:15:50.551Z,86.76
2024-03-16T00:18:17.380Z,86.66
2024-03-16T00:20:43.950Z,87.15
2024-03-16T00:23:10.517Z,86.97
2024-03-16T00:25:37.074Z,86.95
2024-03-16T00:28:03.872Z,86.86
2024-03-16T00:30:31.163Z,87.07
2024-03-16T00:32:57.755Z,86.58
2024-03-16T00:35:25.693Z,86.80
2024-03-16T00:37:52.280Z,86.56
2024-03-16T00:40:20.484Z,86.54
2024-03-16T00:42:47.522Z,86.71
2024-03-16T00:45:14.289Z,86.91
2024-03-16T00:47:40.871Z,86.58
2024-03-16T00:50:07.820Z,86.52
2024-03-16T00:52:34.343Z,86.66
2024-03-16T00:55:00.892Z,86.62
2024-03-16T00:57:27.425Z,86.74
2024-03-16T00:59:55.748Z,86.82
2024-03-16T01:02:22.315Z,86.59
2024-03-16T01:04:48.866Z,86.62
2024-03-16T01:07:16.263Z,86.67
2024-03-16T01:09:43.075Z,86.55
2024-03-16T01:12:09.569Z,86.38
2024-03-16T01:14:36.121Z,86.49
2024-03-16T01:17:03.255Z,86.39
2024-03-16T01:19:30.148Z,86.43
2024-03-16T01:21:56.768Z,86.37
2024-03-16T01:24:23.306Z,86.35
2024-03-16T01:26:50.233Z,86.42
2024-03-16T01:29:16.987Z,86.55
2024-03-16T01:31:43.613Z,86.60
2024-03-16T01:34:10.261Z,86.34
2024-03-16T01:36:36.932Z,86.48
2024-03-16T01:39:04.236Z,86.56
2024-03-16T01:41:31.040Z,86.50
2024-03-16T01:44:10.197Z,86.50
2024-03-16T01:46:36.748Z,86.26
2024-03-16T01:49:03.289Z,86.04
2024-03-16T01:51:33.005Z,85.70
2024-03-16T01:53:59.521Z,85.89
2024-03-16T01:56:26.164Z,85.87
2024-03-16T01:58:52.731Z,85.82
2024-03-16T02:01:19.444Z,85.83
2024-03-16T02:03:47.824Z,86.17
2024-03-16T02:06:14.491Z,86.77
2024-03-16T02:08:41.837Z,86.99
2024-03-16T02:11:08.498Z,87.55
2024-03-16T02:13:35.150Z,87.56
2024-03-16T02:16:03.183Z,87.96
2024-03-16T02:18:29.827Z,88.17
2024-03-16T02:20:56.920Z,88.46
2024-03-16T02:23:23.922Z,88.70
2024-03-16T02:25:51.610Z,88.61
2024-03-16T02:28:18.147Z,88.76
2024-03-16T02:30:44.882Z,89.37
2024-03-16T02:33:11.784Z,89.47
2024-03-16T02:35:39.287Z,90.19
2024-03-16T02:38:05.902Z,90.08
2024-03-16T02:40:32.988Z,90.73
2024-03-16T02:42:59.548Z,90.77
2024-03-16T02:45:26.322Z,90.78
2024-03-16T02:47:53.357Z,91.00
2024-03-16T02:50:20.990Z,91.25
2024-03-16T02:52:47.673Z,91.74
2024-03-16T02:55:14.948Z,92.29
2024-03-16T02:57:41.623Z,92.12
2024-03-16T03:00:12.065Z,92.91
2024-03-16T03:02:39.289Z,92.75
2024-03-16T03:05:09.007Z,92.50
2024-03-16T03:07:35.494Z,92.66
2024-03-16T03:10:02.178Z,92.47
2024-03-16T03:12:29.238Z,92.79
2024-03-16T03:14:55.894Z,92.61
2024-03-16T03:17:22.394Z,92.36
2024-03-16T03:19:49.861Z,92.08
2024-03-16T03:22:16.520Z,92.01
2024-03-16T03:24:43.162Z,91.78
2024-03-16T03:27:09.936Z,91.45
2024-03-16T03:29:36.458Z,91.34
2024-03-16T03:32:03.079Z,91.23
2024-03-16T03:34:29.845Z,91.17
2024-03-16T03:36:56.431Z,90.90
2024-03-16T03:39:25.733Z,90.63
2024-03-16T03:41:53.714Z,90.54
2024-03-16T03:44:25.309Z,90.50
2024-03-16T03:46:52.752Z,90.43
2024-03-16T03:49:27.814Z,90.45
2024-03-16T03:51:55.281Z,90.62
2024-03-16T03:54:22.301Z,90.74
2024-03-16T03:56:48.878Z,90.73
2024-03-16T03:59:15.457Z,90.52
2024-03-16T04:01:42.049Z,90.72
2024-03-16T04:04:08.627Z,90.54
2024-03-16T04:06:35.215Z,90.49
2024-03-16T04:09:01.709Z,89.96
2024-03-16T04:11:28.271Z,89.65
2024-03-16T04:13:54.735Z,89.71
2024-03-16T04:16:21.320Z,89.55
2024-03-16T04:18:47.981Z,89.39
2024-03-16T04:21:14.630Z,89.13
2024-03-16T04:23:41.429Z,89.00
2024-03-16T04:26:08.356Z,88.60
2024-03-16T04:28:34.878Z,88.42
2024-03-16T04:31:01.423Z,88.52
2024-03-16T04:33:28.555Z,88.51
2024-03-16T04:35:55.133Z,88.31
2024-03-16T04:38:21.801Z,88.03
2024-03-16T04:40:48.397Z,88.23
2024-03-16T04:43:15.062Z,88.58
2024-03-16T04:45:41.759Z,88.46
2024-03-16T04:48:08.290Z,88.62
2024-03-16T04:50:34.953Z,88.76
2024-03-16T04:53:01.587Z,88.54
2024-03-16T04:55:28.243Z,88.67
2024-03-16T04:57:54.754Z,88.63
2024-03-16T05:00:21.256Z,88.24
2024-03-16T05:02:49.391Z,88.24
2024-03-16T05:05:15.900Z,88.24
2024-03-16T05:07:42.487Z,88.25
2024-03-16T05:10:09.974Z,88.21
2024-03-16T05:12:36.695Z,87.88
2024-03-16T05:15:03.432Z,88.19
2024-03-16T05:17:30.204Z,88.32
2024-03-16T05:19:58.933Z,88.29
2024-03-16T05:22:26.685Z,88.36
2024-03-16T05:24:53.473Z,88.62
2024-03-16T05:27:20.020Z,88.25
2024-03-16T05:29:46.529Z,88.55
2024-03-16T05:32:13.161Z,88.54
2024-03-16T05:34:40.922Z,88.67
2024-03-16T05:37:07.562Z,88.69
2024-03-16T05:39:34.258Z,88.71
2024-03-16T05:42:00.867Z,88.92
2024-03-16T05:44:27.453Z,89.00
2024-03-16T05:46:54.177Z,88.48
2024-03-16T05:49:20.791Z,88.51
2024-03-16T05:51:48.867Z,88.52
2024-03-16T05:54:15.332Z,88.42
2024-03-16T05:56:41.882Z,88.89
2024-03-16T05:59:11.977Z,88.79
2024-03-16T06:01:38.822Z,89.38
2024-03-16T06:04:05.421Z,89.41
2024-03-16T06:06:33.426Z,89.49
2024-03-16T06:09:00.117Z,89.16
2024-03-16T06:11:27.659Z,89.53
2024-03-16T06:13:54.192Z,89.27
2024-03-16T06:16:22.765Z,89.28
2024-03-16T06:18:49.726Z,88.70
2024-03-16T06:21:16.283Z,89.06
2024-03-16T06:23:43.583Z,89.33
2024-03-16T06:26:17.897Z,89.34
2024-03-16T06:28:48.111Z,89.53
2024-03-16T06:31:14.975Z,89.45
2024-03-16T06:33:46.648Z,89.59
2024-03-16T06:36:13.396Z,89.49
2024-03-16T06:38:39.920Z,89.45
2024-03-16T06:41:06.511Z,89.22
2024-03-16T06:43:33.678Z,88.90
2024-03-16T06:46:01.945Z,88.64
2024-03-16T06:48:36.710Z,88.19
2024-03-16T06:51:03.413Z,88.02
2024-03-16T06:53:30.055Z,88.20
2024-03-16T06:55:56.633Z,88.02
2024-03-16T06:58:23.804Z,87.94
2024-03-16T07:00:50.374Z,88.20
2024-03-16T07:03:16.956Z,87.97
2024-03-16T07:05:43.440Z,87.96
2024-03-16T07:08:11.899Z,87.74
2024-03-16T07:10:39.146Z,87.96
2024-03-16T07:13:07.671Z,87.75
2024-03-16T07:15:34.278Z,87.81
2024-03-16T07:18:00.901Z,87.35
2024-03-16T07:20:27.463Z,86.88
2024-03-16T07:22:55.345Z,86.90
2024-03-16T07:25:21.969Z,86.55
2024-03-16T07:27:49.120Z,86.69
2024-03-16T07:30:18.207Z,86.54
2024-03-16T07:32:44.762Z,86.25
2024-03-16T07:35:11.294Z,86.00
2024-03-16T07:37:37.733Z,85.76
2024-03-16T07:40:05.325Z,85.34
2024-03-16T07:42:31.860Z,85.06
2024-03-16T07:44:58.337Z,85.10
2024-03-16T07:47:24.975Z,84.74
2024-03-16T07:49:53.204Z,84.77
2024-03-16T07:52:19.750Z,84.93
2024-03-16T07:54:46.243Z,84.91
2024-03-16T07:57:12.720Z,84.89
2024-03-16T07:59:39.533Z,85.09
2024-03-16T08:02:07.325Z,85.14
2024-03-16T08:04:36.057Z,85.18
2024-03-16T08:07:02.532Z,85.52
2024-03-16T08:09:29.176Z,85.50
2024-03-16T08:11:55.919Z,85.36
2024-03-16T08:14:22.419Z,85.30
2024-03-16T08:16:48.967Z,86.05
2024-03-16T08:19:17.742Z,86.36
2024-03-16T08:21:44.412Z,87.15
2024-03-16T08:24:10.881Z,86.77
2024-03-16T08:26:37.349Z,86.97
2024-03-16T08:29:03.830Z,86.94
2024-03-16T08:31:30.485Z,86.96
2024-03-16T08:33:57.260Z,86.66
2024-03-16T08:36:24.447Z,86.79
2024-03-16T08:38:50.922Z,86.38
2024-03-16T08:41:17.403Z,86.31
2024-03-16T08:43:44.831Z,85.79
2024-03-16T08:46:11.410Z,85.15
2024-03-16T08:48:38.050Z,85.55
2024-03-16T08:51:05.794Z,85.57
2024-03-16T08:53:32.684Z,85.35
2024-03-16T08:56:00.963Z,84.86
2024-03-16T08:58:27.464Z,85.28
2024-03-16T09:00:54.658Z,85.18
2024-03-16T09:03:21.346Z,85.15
2024-03-16T09:05:48.870Z,85.28
2024-03-16T09:08:15.348Z,85.70
2024-03-16T09:10:41.828Z,85.63
2024-03-16T09:13:08.862Z,86.02
2024-03-16T09:15:35.490Z,86.18
2024-03-16T09:18:02.055Z,85.78
2024-03-16T09:20:28.531Z,85.80
2024-03-16T09:22:57.241Z,85.65
2024-03-16T09:25:23.893Z,85.05
2024-03-16T09:27:50.415Z,85.31
2024-03-16T09:30:19.106Z,85.04
2024-03-16T09:32:45.601Z,85.11
2024-03-16T09:35:12.331Z,85.00
2024-03-16T09:37:38.986Z,85.09
2024-03-16T09:40:11.388Z,85.16
2024-03-16T09:42:38.458Z,84.81
